sensor_id;sensor_type;location;lat;lon;timestamp;P1;durP1;ratioP1;P2;durP2;ratioP2
48285;SDS011;34102;47.716;10.296;2023-02-26T06:32:49;3.22;;;1.20;;
48285;SDS011;34102;47.716;10.296;2023-02-26T06:35:17;4.22;;;1.30;;
48285;SDS011;34102;47.716;10.296;2023-02-26T06:37:42;3.25;;;1.50;;
48285;SDS011;34102;47.716;10.296;2023-02-26T06:40:08;3.75;;;1.50;;
48285;SDS011;34102;47.716;10.296;2023-02-26T06:42:34;6.75;;;1.92;;
48285;SDS011;34102;47.716;10.296;2023-02-26T06:45:01;4.60;;;1.73;;
48285;SDS011;34102;47.716;10.296;2023-02-26T06:47:27;4.18;;;1.35;;
48285;SDS011;34102;47.716;10.296;2023-02-26T06:49:52;3.53;;;1.60;;
48285;SDS011;34102;47.716;10.296;2023-02-26T06:52:17;3.40;;;1.50;;
48285;SDS011;34102;47.716;10.296;2023-02-26T06:54:42;4.22;;;1.55;;
48285;SDS011;34102;47.716;10.296;2023-02-26T06:57:08;4.68;;;1.75;;
48285;SDS011;34102;47.716;10.296;2023-02-26T06:59:33;3.10;;;1.85;;
48285;SDS011;34102;47.716;10.296;2023-02-26T07:01:58;6.07;;;2.03;;
48285;SDS011;34102;47.716;10.296;2023-02-26T07:04:23;4.18;;;1.13;;
48285;SDS011;34102;47.716;10.296;2023-02-26T07:06:49;4.80;;;2.00;;
48285;SDS011;34102;47.716;10.296;2023-02-26T07:09:14;5.72;;;2.10;;
48285;SDS011;34102;47.716;10.296;2023-02-26T07:11:39;7.55;;;1.60;;
48285;SDS011;34102;47.716;10.296;2023-02-26T07:14:04;5.90;;;1.85;;
48285;SDS011;34102;47.716;10.296;2023-02-26T07:16:30;4.88;;;1.88;;
48285;SDS011;34102;47.716;10.296;2023-02-26T07:18:55;5.90;;;2.08;;
48285;SDS011;34102;47.716;10.296;2023-02-26T07:21:20;6.00;;;2.25;;
48285;SDS011;34102;47.716;10.296;2023-02-26T07:23:45;5.90;;;2.22;;
48285;SDS011;34102;47.716;10.296;2023-02-26T07:26:11;5.47;;;2.53;;
48285;SDS011;34102;47.716;10.296;2023-02-26T07:28:36;7.95;;;3.58;;
48285;SDS011;34102;47.716;10.296;2023-02-26T07:31:01;5.90;;;2.13;;
48285;SDS011;34102;47.716;10.296;2023-02-26T07:33:26;4.63;;;2.00;;
48285;SDS011;34102;47.716;10.296;2023-02-26T07:35:52;3.30;;;2.00;;
48285;SDS011;34102;47.716;10.296;2023-02-26T07:38:18;6.30;;;2.15;;
48285;SDS011;34102;47.716;10.296;2023-02-26T07:40:43;5.55;;;2.35;;
48285;SDS011;34102;47.716;10.296;2023-02-26T07:43:08;3.95;;;2.45;;
48285;SDS011;34102;47.716;10.296;2023-02-26T07:45:33;8.07;;;2.28;;
48285;SDS011;34102;47.716;10.296;2023-02-26T07:47:59;3.83;;;1.90;;
48285;SDS011;34102;47.716;10.296;2023-02-26T07:50:24;4.07;;;1.80;;
48285;SDS011;34102;47.716;10.296;2023-02-26T07:52:53;4.45;;;2.03;;
48285;SDS011;34102;47.716;10.296;2023-02-26T07:55:18;3.83;;;1.45;;
48285;SDS011;34102;47.716;10.296;2023-02-26T07:57:43;3.70;;;1.67;;
48285;SDS011;34102;47.716;10.296;2023-02-26T08:00:09;4.30;;;1.85;;
48285;SDS011;34102;47.716;10.296;2023-02-26T08:02:34;8.40;;;1.95;;
48285;SDS011;34102;47.716;10.296;2023-02-26T08:05:00;5.63;;;2.00;;
48285;SDS011;34102;47.716;10.296;2023-02-26T08:07:25;3.97;;;1.60;;
48285;SDS011;34102;47.716;10.296;2023-02-26T08:09:50;2.55;;;1.10;;
48285;SDS011;34102;47.716;10.296;2023-02-26T08:12:15;2.80;;;1.65;;
48285;SDS011;34102;47.716;10.296;2023-02-26T08:14:40;3.25;;;1.92;;
48285;SDS011;34102;47.716;10.296;2023-02-26T08:17:06;6.03;;;1.20;;
48285;SDS011;34102;47.716;10.296;2023-02-26T08:19:32;4.28;;;1.30;;
48285;SDS011;34102;47.716;10.296;2023-02-26T08:21:57;2.85;;;1.20;;
48285;SDS011;34102;47.716;10.296;2023-02-26T08:24:23;4.97;;;1.30;;
48285;SDS011;34102;47.716;10.296;2023-02-26T08:26:48;4.10;;;1.30;;
48285;SDS011;34102;47.716;10.296;2023-02-26T08:29:13;3.75;;;1.20;;
48285;SDS011;34102;47.716;10.296;2023-02-26T08:31:39;4.55;;;1.77;;
48285;SDS011;34102;47.716;10.296;2023-02-26T08:34:04;4.45;;;1.50;;
48285;SDS011;34102;47.716;10.296;2023-02-26T08:36:30;2.70;;;1.42;;
48285;SDS011;34102;47.716;10.296;2023-02-26T08:38:55;3.45;;;1.05;;
48285;SDS011;34102;47.716;10.296;2023-02-26T08:41:20;2.22;;;1.08;;
48285;SDS011;34102;47.716;10.296;2023-02-26T08:43:46;2.90;;;1.23;;
48285;SDS011;34102;47.716;10.296;2023-02-26T08:46:12;2.10;;;1.10;;
48285;SDS011;34102;47.716;10.296;2023-02-26T08:48:37;4.32;;;1.33;;
48285;SDS011;34102;47.716;10.296;2023-02-26T08:51:04;1.92;;;1.08;;
48285;SDS011;34102;47.716;10.296;2023-02-26T08:53:29;4.00;;;1.02;;
48285;SDS011;34102;47.716;10.296;2023-02-26T08:55:54;2.35;;;1.10;;
48285;SDS011;34102;47.716;10.296;2023-02-26T08:58:20;4.63;;;1.77;;
48285;SDS011;34102;47.716;10.296;2023-02-26T09:00:45;2.97;;;1.30;;
48285;SDS011;34102;47.716;10.296;2023-02-26T09:03:11;2.97;;;1.10;;
48285;SDS011;34102;47.716;10.296;2023-02-26T09:05:36;2.33;;;1.20;;
48285;SDS011;34102;47.716;10.296;2023-02-26T09:08:02;3.42;;;0.95;;
48285;SDS011;34102;47.716;10.296;2023-02-26T09:10:27;14.02;;;2.08;;
48285;SDS011;34102;47.716;10.296;2023-02-26T09:12:53;3.83;;;1.30;;
48285;SDS011;34102;47.716;10.296;2023-02-26T09:15:18;3.30;;;0.93;;
48285;SDS011;34102;47.716;10.296;2023-02-26T09:17:45;3.78;;;0.95;;
48285;SDS011;34102;47.716;10.296;2023-02-26T09:20:10;2.42;;;1.30;;
48285;SDS011;34102;47.716;10.296;2023-02-26T09:22:36;2.85;;;0.98;;
48285;SDS011;34102;47.716;10.296;2023-02-26T09:25:02;1.20;;;0.85;;
48285;SDS011;34102;47.716;10.296;2023-02-26T09:27:28;3.40;;;0.98;;
48285;SDS011;34102;47.716;10.296;2023-02-26T09:29:53;3.83;;;1.95;;
48285;SDS011;34102;47.716;10.296;2023-02-26T09:32:18;1.48;;;0.60;;
48285;SDS011;34102;47.716;10.296;2023-02-26T09:34:43;1.73;;;1.00;;
48285;SDS011;34102;47.716;10.296;2023-02-26T09:37:09;5.15;;;1.15;;
48285;SDS011;34102;47.716;10.296;2023-02-26T09:39:34;2.35;;;1.10;;
48285;SDS011;34102;47.716;10.296;2023-02-26T09:42:07;2.80;;;0.77;;
48285;SDS011;34102;47.716;10.296;2023-02-26T09:44:35;4.35;;;1.23;;
48285;SDS011;34102;47.716;10.296;2023-02-26T09:54:48;2.67;;;0.95;;
48285;SDS011;34102;47.716;10.296;2023-02-26T09:57:19;3.10;;;0.82;;
48285;SDS011;34102;47.716;10.296;2023-02-26T09:59:45;2.08;;;0.98;;
48285;SDS011;34102;47.716;10.296;2023-02-26T10:02:15;1.80;;;0.90;;
48285;SDS011;34102;47.716;10.296;2023-02-26T10:04:48;2.35;;;1.15;;
48285;SDS011;34102;47.716;10.296;2023-02-26T10:09:59;4.20;;;1.42;;
48285;SDS011;34102;47.716;10.296;2023-02-26T10:12:27;4.35;;;1.35;;
48285;SDS011;34102;47.716;10.296;2023-02-26T10:19:52;2.72;;;0.80;;
48285;SDS011;34102;47.716;10.296;2023-02-26T10:22:32;2.03;;;1.00;;
48285;SDS011;34102;47.716;10.296;2023-02-26T10:30:12;2.95;;;1.20;;
48285;SDS011;34102;47.716;10.296;2023-02-26T10:32:47;2.15;;;1.20;;
48285;SDS011;34102;47.716;10.296;2023-02-26T10:35:15;2.70;;;1.20;;
48285;SDS011;34102;47.716;10.296;2023-02-26T10:40:12;2.40;;;1.52;;
48285;SDS011;34102;47.716;10.296;2023-02-26T10:50:04;4.60;;;1.60;;
48285;SDS011;34102;47.716;10.296;2023-02-26T10:52:30;3.00;;;1.40;;
48285;SDS011;34102;47.716;10.296;2023-02-26T10:55:04;2.42;;;1.25;;
48285;SDS011;34102;47.716;10.296;2023-02-26T10:57:31;5.05;;;1.55;;
48285;SDS011;34102;47.716;10.296;2023-02-26T10:59:59;1.73;;;1.17;;
48285;SDS011;34102;47.716;10.296;2023-02-26T11:04:59;1.92;;;1.08;;
48285;SDS011;34102;47.716;10.296;2023-02-26T11:07:26;4.05;;;1.67;;
48285;SDS011;34102;47.716;10.296;2023-02-26T11:09:52;3.03;;;1.48;;
48285;SDS011;34102;47.716;10.296;2023-02-26T11:12:18;3.15;;;1.33;;
48285;SDS011;34102;47.716;10.296;2023-02-26T11:14:46;4.72;;;1.23;;
48285;SDS011;34102;47.716;10.296;2023-02-26T11:17:21;3.55;;;1.05;;
48285;SDS011;34102;47.716;10.296;2023-02-26T11:19:51;1.95;;;0.98;;
48285;SDS011;34102;47.716;10.296;2023-02-26T11:22:16;4.00;;;1.20;;
48285;SDS011;34102;47.716;10.296;2023-02-26T11:24:43;2.92;;;1.50;;
48285;SDS011;34102;47.716;10.296;2023-02-26T11:27:12;2.58;;;1.30;;
48285;SDS011;34102;47.716;10.296;2023-02-26T11:29:40;1.42;;;1.00;;
48285;SDS011;34102;47.716;10.296;2023-02-26T11:32:06;4.10;;;1.40;;
48285;SDS011;34102;47.716;10.296;2023-02-26T11:34:31;3.55;;;1.20;;
48285;SDS011;34102;47.716;10.296;2023-02-26T11:36:57;2.05;;;0.90;;
48285;SDS011;34102;47.716;10.296;2023-02-26T11:39:24;2.17;;;0.95;;
48285;SDS011;34102;47.716;10.296;2023-02-26T11:41:51;1.52;;;0.88;;
48285;SDS011;34102;47.716;10.296;2023-02-26T11:44:37;4.00;;;1.45;;
48285;SDS011;34102;47.716;10.296;2023-02-26T11:47:11;3.00;;;1.10;;
48285;SDS011;34102;47.716;10.296;2023-02-26T11:49:40;2.22;;;0.93;;
48285;SDS011;34102;47.716;10.296;2023-02-26T11:54:41;2.50;;;1.45;;
48285;SDS011;34102;47.716;10.296;2023-02-26T11:57:15;2.35;;;1.08;;
48285;SDS011;34102;47.716;10.296;2023-02-26T11:59:41;3.10;;;1.48;;
48285;SDS011;34102;47.716;10.296;2023-02-26T12:02:12;3.75;;;1.50;;
48285;SDS011;34102;47.716;10.296;2023-02-26T12:04:38;1.75;;;1.00;;
48285;SDS011;34102;47.716;10.296;2023-02-26T12:07:07;2.15;;;0.95;;
48285;SDS011;34102;47.716;10.296;2023-02-26T12:09:35;2.65;;;1.20;;
48285;SDS011;34102;47.716;10.296;2023-02-26T12:19:34;1.70;;;1.10;;
48285;SDS011;34102;47.716;10.296;2023-02-26T12:27:12;2.45;;;1.20;;
48285;SDS011;34102;47.716;10.296;2023-02-26T12:32:13;1.93;;;1.40;;
48285;SDS011;34102;47.716;10.296;2023-02-26T12:34:52;2.28;;;1.75;;
48285;SDS011;34102;47.716;10.296;2023-02-26T12:51:08;5.07;;;1.30;;
48285;SDS011;34102;47.716;10.296;2023-02-26T12:58:35;4.00;;;1.95;;
48285;SDS011;34102;47.716;10.296;2023-02-26T13:03:46;3.40;;;1.70;;
48285;SDS011;34102;47.716;10.296;2023-02-26T13:09:16;2.60;;;1.50;;
48285;SDS011;34102;47.716;10.296;2023-02-26T13:17:05;5.32;;;2.20;;
48285;SDS011;34102;47.716;10.296;2023-02-26T13:19:45;3.60;;;1.70;;
48285;SDS011;34102;47.716;10.296;2023-02-26T13:25:03;2.45;;;2.00;;
48285;SDS011;34102;47.716;10.296;2023-02-26T13:27:31;2.53;;;1.77;;
48285;SDS011;34102;47.716;10.296;2023-02-26T13:32:46;2.90;;;1.77;;
48285;SDS011;34102;47.716;10.296;2023-02-26T13:35:17;5.70;;;3.47;;
48285;SDS011;34102;47.716;10.296;2023-02-26T13:37:56;2.83;;;1.70;;
48285;SDS011;34102;47.716;10.296;2023-02-26T13:46:34;3.28;;;2.00;;
48285;SDS011;34102;47.716;10.296;2023-02-26T13:51:07;3.30;;;2.22;;
48285;SDS011;34102;47.716;10.296;2023-02-26T13:53:37;2.50;;;1.98;;
48285;SDS011;34102;47.716;10.296;2023-02-26T13:56:23;6.28;;;2.83;;
48285;SDS011;34102;47.716;10.296;2023-02-26T14:04:32;16.25;;;8.25;;
48285;SDS011;34102;47.716;10.296;2023-02-26T14:12:02;3.60;;;1.33;;
48285;SDS011;34102;47.716;10.296;2023-02-26T14:14:35;2.47;;;1.45;;
48285;SDS011;34102;47.716;10.296;2023-02-26T14:19:39;3.75;;;1.90;;
48285;SDS011;34102;47.716;10.296;2023-02-26T14:24:36;4.95;;;3.15;;
48285;SDS011;34102;47.716;10.296;2023-02-26T14:27:23;3.17;;;1.90;;
48285;SDS011;34102;47.716;10.296;2023-02-26T14:32:28;3.85;;;2.00;;
48285;SDS011;34102;47.716;10.296;2023-02-26T14:34:54;4.53;;;2.20;;
48285;SDS011;34102;47.716;10.296;2023-02-26T14:37:23;4.78;;;2.22;;
48285;SDS011;34102;47.716;10.296;2023-02-26T14:42:28;3.50;;;2.55;;
48285;SDS011;34102;47.716;10.296;2023-02-26T14:45:29;5.35;;;2.78;;
48285;SDS011;34102;47.716;10.296;2023-02-26T14:47:46;4.60;;;2.28;;
48285;SDS011;34102;47.716;10.296;2023-02-26T14:50:16;8.27;;;2.80;;
48285;SDS011;34102;47.716;10.296;2023-02-26T15:08:08;2.92;;;2.20;;
48285;SDS011;34102;47.716;10.296;2023-02-26T15:26:03;2.08;;;1.48;;
48285;SDS011;34102;47.716;10.296;2023-02-26T15:28:31;3.78;;;1.85;;
48285;SDS011;34102;47.716;10.296;2023-02-26T15:30:58;2.70;;;1.80;;
48285;SDS011;34102;47.716;10.296;2023-02-26T15:33:24;1.80;;;1.48;;
48285;SDS011;34102;47.716;10.296;2023-02-26T15:35:51;1.58;;;1.27;;
48285;SDS011;34102;47.716;10.296;2023-02-26T15:38:16;1.88;;;1.25;;
48285;SDS011;34102;47.716;10.296;2023-02-26T15:40:42;2.33;;;1.70;;
48285;SDS011;34102;47.716;10.296;2023-02-26T15:43:08;1.77;;;1.50;;
48285;SDS011;34102;47.716;10.296;2023-02-26T15:45:40;1.88;;;1.20;;
48285;SDS011;34102;47.716;10.296;2023-02-26T15:48:07;1.75;;;1.58;;
48285;SDS011;34102;47.716;10.296;2023-02-26T15:50:36;1.83;;;1.15;;
48285;SDS011;34102;47.716;10.296;2023-02-26T15:53:03;3.42;;;1.38;;
48285;SDS011;34102;47.716;10.296;2023-02-26T15:55:30;2.17;;;1.45;;
48285;SDS011;34102;47.716;10.296;2023-02-26T15:57:56;1.50;;;1.20;;
48285;SDS011;34102;47.716;10.296;2023-02-26T16:00:22;2.67;;;1.70;;
48285;SDS011;34102;47.716;10.296;2023-02-26T16:02:50;7.88;;;1.48;;
48285;SDS011;34102;47.716;10.296;2023-02-26T16:05:18;2.10;;;1.45;;
48285;SDS011;34102;47.716;10.296;2023-02-26T16:07:43;2.08;;;1.70;;
48285;SDS011;34102;47.716;10.296;2023-02-26T16:13:13;2.97;;;1.90;;
48285;SDS011;34102;47.716;10.296;2023-02-26T16:15:39;2.83;;;2.00;;
48285;SDS011;34102;47.716;10.296;2023-02-26T16:18:11;3.03;;;1.98;;
48285;SDS011;34102;47.716;10.296;2023-02-26T16:20:38;3.40;;;2.00;;
48285;SDS011;34102;47.716;10.296;2023-02-26T16:23:05;3.58;;;2.20;;
48285;SDS011;34102;47.716;10.296;2023-02-26T16:25:35;4.25;;;2.25;;
48285;SDS011;34102;47.716;10.296;2023-02-26T16:28:03;2.90;;;2.17;;
48285;SDS011;34102;47.716;10.296;2023-02-26T16:30:33;3.28;;;2.30;;
48285;SDS011;34102;47.716;10.296;2023-02-26T16:33:00;3.65;;;2.67;;
48285;SDS011;34102;47.716;10.296;2023-02-26T16:35:27;5.80;;;2.88;;
48285;SDS011;34102;47.716;10.296;2023-02-26T16:37:55;5.35;;;2.60;;
48285;SDS011;34102;47.716;10.296;2023-02-26T16:40:25;4.35;;;2.85;;
48285;SDS011;34102;47.716;10.296;2023-02-26T16:42:52;4.55;;;2.60;;
48285;SDS011;34102;47.716;10.296;2023-02-26T16:45:24;4.03;;;2.80;;
48285;SDS011;34102;47.716;10.296;2023-02-26T16:47:50;5.95;;;2.72;;
48285;SDS011;34102;47.716;10.296;2023-02-26T16:50:18;4.07;;;2.47;;
48285;SDS011;34102;47.716;10.296;2023-02-26T16:52:45;3.20;;;1.98;;
48285;SDS011;34102;47.716;10.296;2023-02-26T16:55:11;4.50;;;2.30;;
48285;SDS011;34102;47.716;10.296;2023-02-26T16:57:42;3.55;;;2.53;;
48285;SDS011;34102;47.716;10.296;2023-02-26T17:00:13;3.80;;;2.35;;
48285;SDS011;34102;47.716;10.296;2023-02-26T17:02:43;3.65;;;2.17;;
48285;SDS011;34102;47.716;10.296;2023-02-26T17:05:21;4.97;;;3.00;;
48285;SDS011;34102;47.716;10.296;2023-02-26T17:07:53;4.18;;;2.72;;
48285;SDS011;34102;47.716;10.296;2023-02-26T17:10:32;5.85;;;2.55;;
48285;SDS011;34102;47.716;10.296;2023-02-26T17:13:03;4.38;;;2.25;;
48285;SDS011;34102;47.716;10.296;2023-02-26T17:15:30;4.75;;;2.40;;
48285;SDS011;34102;47.716;10.296;2023-02-26T17:17:56;4.30;;;2.47;;
48285;SDS011;34102;47.716;10.296;2023-02-26T17:20:23;4.95;;;2.55;;
48285;SDS011;34102;47.716;10.296;2023-02-26T17:22:48;4.25;;;3.03;;
48285;SDS011;34102;47.716;10.296;2023-02-26T17:25:15;3.13;;;2.10;;
48285;SDS011;34102;47.716;10.296;2023-02-26T17:27:41;3.28;;;2.20;;
48285;SDS011;34102;47.716;10.296;2023-02-26T17:30:07;3.55;;;2.28;;
48285;SDS011;34102;47.716;10.296;2023-02-26T17:32:34;5.70;;;2.95;;
48285;SDS011;34102;47.716;10.296;2023-02-26T17:35:00;3.70;;;2.28;;
48285;SDS011;34102;47.716;10.296;2023-02-26T17:37:29;4.30;;;2.38;;
48285;SDS011;34102;47.716;10.296;2023-02-26T17:39:55;6.40;;;2.20;;
48285;SDS011;34102;47.716;10.296;2023-02-26T17:42:21;3.90;;;2.17;;
48285;SDS011;34102;47.716;10.296;2023-02-26T17:44:47;3.70;;;2.33;;
48285;SDS011;34102;47.716;10.296;2023-02-26T17:47:19;5.20;;;2.72;;
48285;SDS011;34102;47.716;10.296;2023-02-26T17:49:45;4.63;;;2.13;;
48285;SDS011;34102;47.716;10.296;2023-02-26T17:52:11;4.43;;;2.50;;
48285;SDS011;34102;47.716;10.296;2023-02-26T17:54:37;8.05;;;3.13;;
48285;SDS011;34102;47.716;10.296;2023-02-26T17:57:02;4.00;;;1.88;;
48285;SDS011;34102;47.716;10.296;2023-02-26T17:59:28;3.05;;;1.90;;
48285;SDS011;34102;47.716;10.296;2023-02-26T18:01:54;3.85;;;2.10;;
48285;SDS011;34102;47.716;10.296;2023-02-26T18:04:19;3.55;;;1.70;;
48285;SDS011;34102;47.716;10.296;2023-02-26T18:06:44;2.75;;;1.52;;
48285;SDS011;34102;47.716;10.296;2023-02-26T18:09:11;6.95;;;2.13;;
48285;SDS011;34102;47.716;10.296;2023-02-26T18:11:36;2.53;;;1.40;;
48285;SDS011;34102;47.716;10.296;2023-02-26T18:14:03;5.00;;;1.70;;
48285;SDS011;34102;47.716;10.296;2023-02-26T18:16:31;4.28;;;1.70;;
48285;SDS011;34102;47.716;10.296;2023-02-26T18:18:58;4.63;;;1.70;;
48285;SDS011;34102;47.716;10.296;2023-02-26T18:21:24;3.20;;;1.90;;
48285;SDS011;34102;47.716;10.296;2023-02-26T18:23:50;7.38;;;2.35;;
48285;SDS011;34102;47.716;10.296;2023-02-26T18:26:16;4.93;;;2.47;;
48285;SDS011;34102;47.716;10.296;2023-02-26T18:28:43;4.53;;;2.70;;
48285;SDS011;34102;47.716;10.296;2023-02-26T18:33:59;3.63;;;2.28;;
48285;SDS011;34102;47.716;10.296;2023-02-26T18:36:27;5.03;;;2.20;;
48285;SDS011;34102;47.716;10.296;2023-02-26T18:39:03;3.40;;;2.30;;
48285;SDS011;34102;47.716;10.296;2023-02-26T18:41:31;6.00;;;2.38;;
48285;SDS011;34102;47.716;10.296;2023-02-26T18:43:57;3.63;;;1.80;;
48285;SDS011;34102;47.716;10.296;2023-02-26T18:46:23;3.72;;;2.20;;
48285;SDS011;34102;47.716;10.296;2023-02-26T18:48:48;6.15;;;2.50;;
48285;SDS011;34102;47.716;10.296;2023-02-26T18:51:14;4.80;;;2.28;;
48285;SDS011;34102;47.716;10.296;2023-02-26T18:53:39;3.75;;;2.20;;
48285;SDS011;34102;47.716;10.296;2023-02-26T18:56:05;5.70;;;2.40;;
48285;SDS011;34102;47.716;10.296;2023-02-26T18:58:31;4.18;;;2.22;;
48285;SDS011;34102;47.716;10.296;2023-02-26T19:00:56;4.53;;;2.78;;
48285;SDS011;34102;47.716;10.296;2023-02-26T19:03:23;7.05;;;3.90;;
48285;SDS011;34102;47.716;10.296;2023-02-26T19:05:59;7.35;;;4.07;;
48285;SDS011;34102;47.716;10.296;2023-02-26T19:08:24;8.00;;;4.05;;
48285;SDS011;34102;47.716;10.296;2023-02-26T19:10:50;7.30;;;3.92;;
48285;SDS011;34102;47.716;10.296;2023-02-26T19:13:15;11.32;;;2.97;;
48285;SDS011;34102;47.716;10.296;2023-02-26T19:15:41;6.07;;;3.38;;
48285;SDS011;34102;47.716;10.296;2023-02-26T19:18:06;7.93;;;3.25;;
48285;SDS011;34102;47.716;10.296;2023-02-26T19:20:31;7.68;;;2.95;;
48285;SDS011;34102;47.716;10.296;2023-02-26T19:22:57;4.93;;;3.17;;
48285;SDS011;34102;47.716;10.296;2023-02-26T19:25:22;3.92;;;2.50;;
48285;SDS011;34102;47.716;10.296;2023-02-26T19:27:51;6.80;;;2.97;;
48285;SDS011;34102;47.716;10.296;2023-02-26T19:30:17;4.72;;;2.90;;
48285;SDS011;34102;47.716;10.296;2023-02-26T19:32:43;6.18;;;3.85;;
48285;SDS011;34102;47.716;10.296;2023-02-26T19:35:08;6.10;;;2.97;;
48285;SDS011;34102;47.716;10.296;2023-02-26T19:37:34;4.75;;;3.00;;
48285;SDS011;34102;47.716;10.296;2023-02-26T19:39:59;3.75;;;2.50;;
48285;SDS011;34102;47.716;10.296;2023-02-26T19:42:24;6.10;;;3.05;;
48285;SDS011;34102;47.716;10.296;2023-02-26T19:44:52;4.45;;;2.60;;
48285;SDS011;34102;47.716;10.296;2023-02-26T19:47:18;4.50;;;3.35;;
48285;SDS011;34102;47.716;10.296;2023-02-26T19:49:43;6.75;;;4.00;;
48285;SDS011;34102;47.716;10.296;2023-02-26T19:52:08;5.05;;;3.30;;
48285;SDS011;34102;47.716;10.296;2023-02-26T19:54:34;5.82;;;3.45;;
48285;SDS011;34102;47.716;10.296;2023-02-26T19:56:59;4.88;;;2.90;;
48285;SDS011;34102;47.716;10.296;2023-02-26T19:59:25;5.20;;;3.13;;
48285;SDS011;34102;47.716;10.296;2023-02-26T20:01:50;5.07;;;2.90;;
48285;SDS011;34102;47.716;10.296;2023-02-26T20:04:16;4.82;;;2.92;;
48285;SDS011;34102;47.716;10.296;2023-02-26T20:06:42;3.78;;;2.40;;
48285;SDS011;34102;47.716;10.296;2023-02-26T20:09:08;5.53;;;2.88;;
48285;SDS011;34102;47.716;10.296;2023-02-26T20:11:34;3.65;;;2.20;;
48285;SDS011;34102;47.716;10.296;2023-02-26T20:13:59;3.22;;;1.83;;
48285;SDS011;34102;47.716;10.296;2023-02-26T20:16:26;3.28;;;1.95;;
48285;SDS011;34102;47.716;10.296;2023-02-26T20:18:51;6.47;;;1.95;;
48285;SDS011;34102;47.716;10.296;2023-02-26T20:21:17;3.08;;;2.20;;
48285;SDS011;34102;47.716;10.296;2023-02-26T20:23:42;3.08;;;2.30;;
48285;SDS011;34102;47.716;10.296;2023-02-26T20:26:12;3.53;;;2.03;;
48285;SDS011;34102;47.716;10.296;2023-02-26T20:28:37;3.63;;;2.20;;
48285;SDS011;34102;47.716;10.296;2023-02-26T20:31:03;3.38;;;1.75;;
48285;SDS011;34102;47.716;10.296;2023-02-26T20:33:29;3.00;;;1.90;;
48285;SDS011;34102;47.716;10.296;2023-02-26T20:35:57;3.45;;;2.28;;
48285;SDS011;34102;47.716;10.296;2023-02-26T20:38:22;3.20;;;2.00;;
48285;SDS011;34102;47.716;10.296;2023-02-26T20:40:48;5.03;;;2.67;;
48285;SDS011;34102;47.716;10.296;2023-02-26T20:43:13;6.03;;;2.80;;
48285;SDS011;34102;47.716;10.296;2023-02-26T20:45:39;3.58;;;2.15;;
48285;SDS011;34102;47.716;10.296;2023-02-26T20:48:05;5.15;;;2.72;;
48285;SDS011;34102;47.716;10.296;2023-02-26T20:50:31;5.47;;;2.20;;
48285;SDS011;34102;47.716;10.296;2023-02-26T20:52:56;4.10;;;2.53;;
48285;SDS011;34102;47.716;10.296;2023-02-26T20:55:22;3.65;;;2.65;;
48285;SDS011;34102;47.716;10.296;2023-02-26T20:57:48;3.60;;;2.50;;
48285;SDS011;34102;47.716;10.296;2023-02-26T21:00:13;3.50;;;2.28;;
48285;SDS011;34102;47.716;10.296;2023-02-26T21:02:43;4.13;;;2.97;;
48285;SDS011;34102;47.716;10.296;2023-02-26T21:05:09;4.57;;;3.10;;
48285;SDS011;34102;47.716;10.296;2023-02-26T21:07:35;4.32;;;2.67;;
48285;SDS011;34102;47.716;10.296;2023-02-26T21:10:00;3.80;;;2.33;;
48285;SDS011;34102;47.716;10.296;2023-02-26T21:12:26;4.78;;;2.42;;
48285;SDS011;34102;47.716;10.296;2023-02-26T21:14:53;4.13;;;2.63;;
48285;SDS011;34102;47.716;10.296;2023-02-26T21:17:23;3.63;;;2.65;;
48285;SDS011;34102;47.716;10.296;2023-02-26T21:19:48;3.67;;;2.70;;
48285;SDS011;34102;47.716;10.296;2023-02-26T21:22:14;3.85;;;2.22;;
48285;SDS011;34102;47.716;10.296;2023-02-26T21:24:41;3.70;;;2.53;;
48285;SDS011;34102;47.716;10.296;2023-02-26T21:27:06;4.63;;;2.67;;
48285;SDS011;34102;47.716;10.296;2023-02-26T21:29:32;4.38;;;2.97;;
